sensor_id;sensor_type;location;lat;lon;timestamp;P1;durP1;ratioP1;P2;durP2;ratioP2
67889;SDS011;54685;52.082;5.426;2023-09-19T00:00:44;12.07;;;2.45;;
67889;SDS011;54685;52.082;5.426;2023-09-19T00:03:14;8.55;;;1.80;;
67889;SDS011;54685;52.082;5.426;2023-09-19T00:05:41;9.82;;;1.88;;
67889;SDS011;54685;52.082;5.426;2023-09-19T00:08:12;4.45;;;1.50;;
67889;SDS011;54685;52.082;5.426;2023-09-19T00:10:40;10.80;;;1.80;;
67889;SDS011;54685;52.082;5.426;2023-09-19T00:13:09;9.25;;;1.90;;
67889;SDS011;54685;52.082;5.426;2023-09-19T00:15:42;9.38;;;2.15;;
67889;SDS011;54685;52.082;5.426;2023-09-19T00:18:18;8.30;;;1.90;;
67889;SDS011;54685;52.082;5.426;2023-09-19T00:20:47;7.10;;;2.10;;
67889;SDS011;54685;52.082;5.426;2023-09-19T00:23:16;8.88;;;1.55;;
67889;SDS011;54685;52.082;5.426;2023-09-19T00:25:43;9.68;;;1.92;;
67889;SDS011;54685;52.082;5.426;2023-09-19T00:28:11;6.07;;;1.42;;
67889;SDS011;54685;52.082;5.426;2023-09-19T00:30:39;8.77;;;2.38;;
67889;SDS011;54685;52.082;5.426;2023-09-19T00:33:10;6.03;;;1.60;;
67889;SDS011;54685;52.082;5.426;2023-09-19T00:35:52;8.15;;;1.85;;
67889;SDS011;54685;52.082;5.426;2023-09-19T00:38:21;8.32;;;2.17;;
67889;SDS011;54685;52.082;5.426;2023-09-19T00:40:51;8.23;;;1.70;;
67889;SDS011;54685;52.082;5.426;2023-09-19T00:43:17;8.77;;;1.80;;
67889;SDS011;54685;52.082;5.426;2023-09-19T00:45:46;8.05;;;1.60;;
67889;SDS011;54685;52.082;5.426;2023-09-19T00:48:15;9.90;;;1.92;;
67889;SDS011;54685;52.082;5.426;2023-09-19T00:50:43;7.28;;;1.42;;
67889;SDS011;54685;52.082;5.426;2023-09-19T00:53:14;8.23;;;2.30;;
67889;SDS011;54685;52.082;5.426;2023-09-19T00:55:45;7.90;;;2.03;;
67889;SDS011;54685;52.082;5.426;2023-09-19T00:58:13;7.00;;;1.92;;
67889;SDS011;54685;52.082;5.426;2023-09-19T01:00:40;7.18;;;2.03;;
67889;SDS011;54685;52.082;5.426;2023-09-19T01:03:11;7.72;;;1.77;;
67889;SDS011;54685;52.082;5.426;2023-09-19T01:05:39;11.85;;;2.03;;
67889;SDS011;54685;52.082;5.426;2023-09-19T01:08:06;12.10;;;2.10;;
67889;SDS011;54685;52.082;5.426;2023-09-19T01:10:33;8.98;;;1.98;;
67889;SDS011;54685;52.082;5.426;2023-09-19T01:18:12;9.40;;;1.85;;
67889;SDS011;54685;52.082;5.426;2023-09-19T01:26:23;8.52;;;2.83;;
67889;SDS011;54685;52.082;5.426;2023-09-19T01:31:59;13.50;;;2.53;;
67889;SDS011;54685;52.082;5.426;2023-09-19T01:37:17;10.57;;;1.88;;
67889;SDS011;54685;52.082;5.426;2023-09-19T01:39:47;6.15;;;2.15;;
67889;SDS011;54685;52.082;5.426;2023-09-19T01:42:21;16.52;;;3.00;;
67889;SDS011;54685;52.082;5.426;2023-09-19T01:45:04;13.63;;;2.45;;
67889;SDS011;54685;52.082;5.426;2023-09-19T01:47:43;10.23;;;2.42;;
67889;SDS011;54685;52.082;5.426;2023-09-19T01:50:18;9.90;;;2.42;;
67889;SDS011;54685;52.082;5.426;2023-09-19T01:55:54;12.35;;;2.60;;
67889;SDS011;54685;52.082;5.426;2023-09-19T01:58:37;9.65;;;2.60;;
67889;SDS011;54685;52.082;5.426;2023-09-19T02:01:10;9.02;;;2.40;;
67889;SDS011;54685;52.082;5.426;2023-09-19T02:03:39;12.45;;;2.53;;
67889;SDS011;54685;52.082;5.426;2023-09-19T02:06:08;9.35;;;2.35;;
67889;SDS011;54685;52.082;5.426;2023-09-19T02:08:40;10.32;;;2.30;;
67889;SDS011;54685;52.082;5.426;2023-09-19T02:11:07;10.95;;;2.58;;
67889;SDS011;54685;52.082;5.426;2023-09-19T02:13:34;11.68;;;2.30;;
67889;SDS011;54685;52.082;5.426;2023-09-19T02:16:01;14.45;;;2.63;;
67889;SDS011;54685;52.082;5.426;2023-09-19T02:18:30;12.30;;;2.40;;
67889;SDS011;54685;52.082;5.426;2023-09-19T02:20:57;8.85;;;2.47;;
67889;SDS011;54685;52.082;5.426;2023-09-19T02:23:25;13.82;;;2.45;;
67889;SDS011;54685;52.082;5.426;2023-09-19T02:25:52;16.45;;;2.63;;
67889;SDS011;54685;52.082;5.426;2023-09-19T02:28:20;13.27;;;2.75;;
67889;SDS011;54685;52.082;5.426;2023-09-19T02:30:50;12.05;;;2.33;;
67889;SDS011;54685;52.082;5.426;2023-09-19T02:33:17;10.98;;;2.40;;
67889;SDS011;54685;52.082;5.426;2023-09-19T02:35:44;22.23;;;2.95;;
67889;SDS011;54685;52.082;5.426;2023-09-19T02:38:11;12.60;;;2.13;;
67889;SDS011;54685;52.082;5.426;2023-09-19T02:40:38;11.65;;;2.60;;
67889;SDS011;54685;52.082;5.426;2023-09-19T02:43:06;12.73;;;2.60;;
67889;SDS011;54685;52.082;5.426;2023-09-19T02:45:35;12.02;;;2.35;;
67889;SDS011;54685;52.082;5.426;2023-09-19T02:48:02;12.48;;;2.65;;
67889;SDS011;54685;52.082;5.426;2023-09-19T02:50:29;15.57;;;2.70;;
67889;SDS011;54685;52.082;5.426;2023-09-19T02:52:56;11.75;;;2.70;;
67889;SDS011;54685;52.082;5.426;2023-09-19T02:55:23;10.93;;;2.40;;
67889;SDS011;54685;52.082;5.426;2023-09-19T02:57:50;13.80;;;3.00;;
67889;SDS011;54685;52.082;5.426;2023-09-19T03:00:19;10.57;;;2.50;;
67889;SDS011;54685;52.082;5.426;2023-09-19T03:02:48;8.23;;;2.00;;
67889;SDS011;54685;52.082;5.426;2023-09-19T03:05:16;12.80;;;2.67;;
67889;SDS011;54685;52.082;5.426;2023-09-19T03:07:43;15.50;;;2.72;;
67889;SDS011;54685;52.082;5.426;2023-09-19T03:10:12;11.88;;;2.40;;
67889;SDS011;54685;52.082;5.426;2023-09-19T03:12:41;10.32;;;2.70;;
67889;SDS011;54685;52.082;5.426;2023-09-19T03:15:09;12.60;;;2.17;;
67889;SDS011;54685;52.082;5.426;2023-09-19T03:17:36;15.45;;;2.42;;
67889;SDS011;54685;52.082;5.426;2023-09-19T03:20:04;15.48;;;2.63;;
67889;SDS011;54685;52.082;5.426;2023-09-19T03:22:34;14.48;;;2.63;;
67889;SDS011;54685;52.082;5.426;2023-09-19T03:25:01;11.13;;;2.47;;
67889;SDS011;54685;52.082;5.426;2023-09-19T03:27:30;12.30;;;2.22;;
67889;SDS011;54685;52.082;5.426;2023-09-19T03:29:57;13.00;;;2.45;;
67889;SDS011;54685;52.082;5.426;2023-09-19T03:32:24;16.42;;;3.50;;
67889;SDS011;54685;52.082;5.426;2023-09-19T03:34:51;11.25;;;2.40;;
67889;SDS011;54685;52.082;5.426;2023-09-19T03:37:19;17.50;;;2.70;;
67889;SDS011;54685;52.082;5.426;2023-09-19T03:39:46;10.82;;;2.17;;
67889;SDS011;54685;52.082;5.426;2023-09-19T03:42:13;12.90;;;2.53;;
67889;SDS011;54685;52.082;5.426;2023-09-19T03:44:40;12.27;;;2.85;;
67889;SDS011;54685;52.082;5.426;2023-09-19T03:47:07;16.48;;;2.83;;
67889;SDS011;54685;52.082;5.426;2023-09-19T03:49:34;12.85;;;2.33;;
67889;SDS011;54685;52.082;5.426;2023-09-19T03:52:01;11.50;;;2.50;;
67889;SDS011;54685;52.082;5.426;2023-09-19T03:54:28;12.85;;;2.42;;
67889;SDS011;54685;52.082;5.426;2023-09-19T03:56:55;11.00;;;2.22;;
67889;SDS011;54685;52.082;5.426;2023-09-19T03:59:23;10.30;;;2.03;;
67889;SDS011;54685;52.082;5.426;2023-09-19T04:01:50;13.82;;;2.85;;
67889;SDS011;54685;52.082;5.426;2023-09-19T04:04:22;10.02;;;2.17;;
67889;SDS011;54685;52.082;5.426;2023-09-19T04:06:51;11.52;;;2.38;;
67889;SDS011;54685;52.082;5.426;2023-09-19T04:09:18;13.15;;;2.45;;
67889;SDS011;54685;52.082;5.426;2023-09-19T04:11:45;9.60;;;2.05;;
67889;SDS011;54685;52.082;5.426;2023-09-19T04:14:12;12.20;;;2.40;;
67889;SDS011;54685;52.082;5.426;2023-09-19T04:16:39;8.00;;;2.20;;
67889;SDS011;54685;52.082;5.426;2023-09-19T04:19:06;12.50;;;2.33;;
67889;SDS011;54685;52.082;5.426;2023-09-19T04:21:34;12.40;;;2.42;;
67889;SDS011;54685;52.082;5.426;2023-09-19T04:24:01;8.07;;;2.38;;
67889;SDS011;54685;52.082;5.426;2023-09-19T04:26:28;11.70;;;2.45;;
67889;SDS011;54685;52.082;5.426;2023-09-19T04:28:55;21.08;;;2.92;;
67889;SDS011;54685;52.082;5.426;2023-09-19T04:31:22;12.05;;;3.88;;
67889;SDS011;54685;52.082;5.426;2023-09-19T04:33:49;16.95;;;3.33;;
67889;SDS011;54685;52.082;5.426;2023-09-19T04:36:16;12.23;;;2.33;;
67889;SDS011;54685;52.082;5.426;2023-09-19T04:39:00;9.00;;;2.08;;
67889;SDS011;54685;52.082;5.426;2023-09-19T04:41:31;9.68;;;2.40;;
67889;SDS011;54685;52.082;5.426;2023-09-19T04:43:58;11.75;;;2.40;;
67889;SDS011;54685;52.082;5.426;2023-09-19T04:46:25;11.45;;;2.45;;
67889;SDS011;54685;52.082;5.426;2023-09-19T04:48:52;14.27;;;3.20;;
67889;SDS011;54685;52.082;5.426;2023-09-19T04:51:19;16.55;;;2.58;;
67889;SDS011;54685;52.082;5.426;2023-09-19T04:53:47;9.93;;;2.33;;
67889;SDS011;54685;52.082;5.426;2023-09-19T04:56:17;9.57;;;2.00;;
67889;SDS011;54685;52.082;5.426;2023-09-19T04:58:45;8.95;;;2.13;;
67889;SDS011;54685;52.082;5.426;2023-09-19T05:01:13;10.88;;;2.80;;
67889;SDS011;54685;52.082;5.426;2023-09-19T05:03:42;15.13;;;2.55;;
67889;SDS011;54685;52.082;5.426;2023-09-19T05:06:09;9.70;;;2.63;;
67889;SDS011;54685;52.082;5.426;2023-09-19T05:08:36;17.90;;;3.20;;
67889;SDS011;54685;52.082;5.426;2023-09-19T05:11:02;12.57;;;2.15;;
67889;SDS011;54685;52.082;5.426;2023-09-19T05:13:30;12.40;;;2.70;;
67889;SDS011;54685;52.082;5.426;2023-09-19T05:15:59;10.13;;;2.70;;
67889;SDS011;54685;52.082;5.426;2023-09-19T05:18:30;11.27;;;2.38;;
67889;SDS011;54685;52.082;5.426;2023-09-19T05:20:58;10.48;;;2.53;;
67889;SDS011;54685;52.082;5.426;2023-09-19T05:23:28;11.60;;;2.40;;
67889;SDS011;54685;52.082;5.426;2023-09-19T05:25:55;17.50;;;2.40;;
67889;SDS011;54685;52.082;5.426;2023-09-19T05:28:23;9.45;;;2.30;;
67889;SDS011;54685;52.082;5.426;2023-09-19T05:30:50;15.30;;;2.80;;
67889;SDS011;54685;52.082;5.426;2023-09-19T05:33:18;10.10;;;2.13;;
67889;SDS011;54685;52.082;5.426;2023-09-19T05:35:47;11.55;;;2.30;;
67889;SDS011;54685;52.082;5.426;2023-09-19T05:38:15;14.07;;;2.92;;
67889;SDS011;54685;52.082;5.426;2023-09-19T05:40:45;8.60;;;2.38;;
67889;SDS011;54685;52.082;5.426;2023-09-19T05:43:13;9.07;;;2.13;;
67889;SDS011;54685;52.082;5.426;2023-09-19T05:45:41;17.02;;;2.70;;
67889;SDS011;54685;52.082;5.426;2023-09-19T05:48:11;9.55;;;2.67;;
67889;SDS011;54685;52.082;5.426;2023-09-19T05:50:39;13.60;;;2.10;;
67889;SDS011;54685;52.082;5.426;2023-09-19T05:53:07;10.48;;;2.50;;
67889;SDS011;54685;52.082;5.426;2023-09-19T05:55:34;10.15;;;2.53;;
67889;SDS011;54685;52.082;5.426;2023-09-19T05:58:01;17.95;;;2.42;;
67889;SDS011;54685;52.082;5.426;2023-09-19T06:00:30;13.55;;;2.50;;
67889;SDS011;54685;52.082;5.426;2023-09-19T06:02:58;13.95;;;2.50;;
67889;SDS011;54685;52.082;5.426;2023-09-19T06:05:27;12.07;;;2.30;;
67889;SDS011;54685;52.082;5.426;2023-09-19T06:07:54;13.18;;;2.90;;
67889;SDS011;54685;52.082;5.426;2023-09-19T06:10:21;11.73;;;2.13;;
67889;SDS011;54685;52.082;5.426;2023-09-19T06:12:50;7.75;;;2.25;;
67889;SDS011;54685;52.082;5.426;2023-09-19T06:15:17;13.38;;;2.40;;
67889;SDS011;54685;52.082;5.426;2023-09-19T06:17:51;10.25;;;2.55;;
67889;SDS011;54685;52.082;5.426;2023-09-19T06:22:52;8.95;;;2.28;;
67889;SDS011;54685;52.082;5.426;2023-09-19T06:25:20;12.55;;;2.83;;
67889;SDS011;54685;52.082;5.426;2023-09-19T06:27:49;11.40;;;2.28;;
67889;SDS011;54685;52.082;5.426;2023-09-19T06:30:18;11.40;;;2.53;;
67889;SDS011;54685;52.082;5.426;2023-09-19T06:32:46;13.30;;;2.10;;
67889;SDS011;54685;52.082;5.426;2023-09-19T06:35:15;18.17;;;2.25;;
67889;SDS011;54685;52.082;5.426;2023-09-19T06:37:42;14.65;;;3.15;;
67889;SDS011;54685;52.082;5.426;2023-09-19T06:40:13;9.77;;;2.25;;
67889;SDS011;54685;52.082;5.426;2023-09-19T06:42:41;15.45;;;3.15;;
67889;SDS011;54685;52.082;5.426;2023-09-19T06:45:13;10.38;;;2.67;;
67889;SDS011;54685;52.082;5.426;2023-09-19T06:47:44;10.30;;;2.63;;
67889;SDS011;54685;52.082;5.426;2023-09-19T06:50:12;18.00;;;2.60;;
67889;SDS011;54685;52.082;5.426;2023-09-19T06:52:41;14.88;;;2.85;;
67889;SDS011;54685;52.082;5.426;2023-09-19T06:55:08;13.88;;;2.40;;
67889;SDS011;54685;52.082;5.426;2023-09-19T06:57:39;10.98;;;2.30;;
67889;SDS011;54685;52.082;5.426;2023-09-19T07:00:11;15.00;;;2.63;;
67889;SDS011;54685;52.082;5.426;2023-09-19T07:02:42;11.35;;;3.25;;
67889;SDS011;54685;52.082;5.426;2023-09-19T07:05:09;12.13;;;2.60;;
67889;SDS011;54685;52.082;5.426;2023-09-19T07:07:37;10.73;;;2.45;;
67889;SDS011;54685;52.082;5.426;2023-09-19T07:10:04;12.82;;;2.88;;
67889;SDS011;54685;52.082;5.426;2023-09-19T07:12:37;11.30;;;2.30;;
67889;SDS011;54685;52.082;5.426;2023-09-19T07:15:04;14.88;;;2.33;;
67889;SDS011;54685;52.082;5.426;2023-09-19T07:17:32;15.95;;;2.88;;
67889;SDS011;54685;52.082;5.426;2023-09-19T07:19:59;8.70;;;2.83;;
67889;SDS011;54685;52.082;5.426;2023-09-19T07:22:26;20.88;;;3.83;;
67889;SDS011;54685;52.082;5.426;2023-09-19T07:24:54;14.15;;;2.88;;
67889;SDS011;54685;52.082;5.426;2023-09-19T07:27:21;13.43;;;3.10;;
67889;SDS011;54685;52.082;5.426;2023-09-19T07:29:48;12.65;;;3.03;;
67889;SDS011;54685;52.082;5.426;2023-09-19T07:32:18;16.88;;;2.55;;
67889;SDS011;54685;52.082;5.426;2023-09-19T07:34:46;16.25;;;2.60;;
67889;SDS011;54685;52.082;5.426;2023-09-19T07:37:13;16.05;;;2.92;;
67889;SDS011;54685;52.082;5.426;2023-09-19T07:39:42;9.20;;;2.30;;
67889;SDS011;54685;52.082;5.426;2023-09-19T07:42:11;15.05;;;2.63;;
67889;SDS011;54685;52.082;5.426;2023-09-19T07:44:44;14.63;;;2.80;;
67889;SDS011;54685;52.082;5.426;2023-09-19T07:47:14;13.55;;;2.97;;
67889;SDS011;54685;52.082;5.426;2023-09-19T07:49:41;17.90;;;2.85;;
67889;SDS011;54685;52.082;5.426;2023-09-19T07:52:11;17.45;;;2.72;;
67889;SDS011;54685;52.082;5.426;2023-09-19T07:54:38;12.60;;;3.17;;
67889;SDS011;54685;52.082;5.426;2023-09-19T07:57:07;15.25;;;2.65;;
67889;SDS011;54685;52.082;5.426;2023-09-19T07:59:36;15.13;;;3.10;;
67889;SDS011;54685;52.082;5.426;2023-09-19T08:02:04;14.43;;;2.95;;
67889;SDS011;54685;52.082;5.426;2023-09-19T08:04:31;12.80;;;2.45;;
67889;SDS011;54685;52.082;5.426;2023-09-19T08:07:00;18.75;;;3.33;;
67889;SDS011;54685;52.082;5.426;2023-09-19T08:09:29;15.98;;;3.42;;
67889;SDS011;54685;52.082;5.426;2023-09-19T08:11:59;11.23;;;2.50;;
67889;SDS011;54685;52.082;5.426;2023-09-19T08:14:29;14.57;;;3.25;;
67889;SDS011;54685;52.082;5.426;2023-09-19T08:16:57;19.75;;;3.25;;
67889;SDS011;54685;52.082;5.426;2023-09-19T08:19:25;15.30;;;2.90;;
67889;SDS011;54685;52.082;5.426;2023-09-19T08:21:58;14.35;;;3.42;;
67889;SDS011;54685;52.082;5.426;2023-09-19T08:24:28;13.70;;;3.28;;
67889;SDS011;54685;52.082;5.426;2023-09-19T08:26:56;18.73;;;3.08;;
67889;SDS011;54685;52.082;5.426;2023-09-19T08:29:23;12.70;;;2.85;;
67889;SDS011;54685;52.082;5.426;2023-09-19T08:31:54;15.25;;;2.78;;
67889;SDS011;54685;52.082;5.426;2023-09-19T08:34:25;19.08;;;3.47;;
67889;SDS011;54685;52.082;5.426;2023-09-19T08:36:53;19.35;;;3.03;;
67889;SDS011;54685;52.082;5.426;2023-09-19T08:39:24;16.70;;;2.88;;
67889;SDS011;54685;52.082;5.426;2023-09-19T08:41:58;15.90;;;3.45;;
67889;SDS011;54685;52.082;5.426;2023-09-19T08:44:26;19.70;;;3.35;;
67889;SDS011;54685;52.082;5.426;2023-09-19T08:47:07;22.05;;;3.70;;
67889;SDS011;54685;52.082;5.426;2023-09-19T08:52:36;14.18;;;3.13;;
67889;SDS011;54685;52.082;5.426;2023-09-19T08:55:11;11.57;;;2.80;;
67889;SDS011;54685;52.082;5.426;2023-09-19T08:57:46;11.68;;;3.05;;
67889;SDS011;54685;52.082;5.426;2023-09-19T09:00:16;15.88;;;2.55;;
67889;SDS011;54685;52.082;5.426;2023-09-19T09:02:47;19.37;;;3.57;;
67889;SDS011;54685;52.082;5.426;2023-09-19T09:05:16;19.88;;;3.65;;
67889;SDS011;54685;52.082;5.426;2023-09-19T09:07:49;10.93;;;2.63;;
67889;SDS011;54685;52.082;5.426;2023-09-19T09:10:22;12.38;;;2.88;;
67889;SDS011;54685;52.082;5.426;2023-09-19T09:12:51;16.08;;;2.83;;
67889;SDS011;54685;52.082;5.426;2023-09-19T09:15:19;12.57;;;2.83;;
67889;SDS011;54685;52.082;5.426;2023-09-19T09:17:50;15.23;;;2.65;;
67889;SDS011;54685;52.082;5.426;2023-09-19T09:20:21;14.25;;;2.33;;
67889;SDS011;54685;52.082;5.426;2023-09-19T09:22:54;15.88;;;2.83;;
67889;SDS011;54685;52.082;5.426;2023-09-19T09:25:47;16.33;;;3.13;;
67889;SDS011;54685;52.082;5.426;2023-09-19T09:28:26;15.05;;;2.88;;
67889;SDS011;54685;52.082;5.426;2023-09-19T09:30:55;13.70;;;2.90;;
67889;SDS011;54685;52.082;5.426;2023-09-19T09:33:23;12.48;;;2.92;;
67889;SDS011;54685;52.082;5.426;2023-09-19T09:36:00;12.30;;;2.85;;
67889;SDS011;54685;52.082;5.426;2023-09-19T09:38:43;20.08;;;2.65;;
67889;SDS011;54685;52.082;5.426;2023-09-19T09:41:16;13.93;;;2.70;;
67889;SDS011;54685;52.082;5.426;2023-09-19T09:43:54;14.88;;;3.42;;
67889;SDS011;54685;52.082;5.426;2023-09-19T09:46:21;16.10;;;3.22;;
67889;SDS011;54685;52.082;5.426;2023-09-19T09:51:48;14.13;;;2.78;;
67889;SDS011;54685;52.082;5.426;2023-09-19T09:54:29;10.10;;;2.55;;
67889;SDS011;54685;52.082;5.426;2023-09-19T09:57:09;15.32;;;3.42;;
67889;SDS011;54685;52.082;5.426;2023-09-19T09:59:50;15.30;;;3.80;;
67889;SDS011;54685;52.082;5.426;2023-09-19T10:02:21;13.90;;;2.70;;
67889;SDS011;54685;52.082;5.426;2023-09-19T10:04:56;12.88;;;2.97;;
67889;SDS011;54685;52.082;5.426;2023-09-19T10:07:48;15.30;;;3.40;;
67889;SDS011;54685;52.082;5.426;2023-09-19T10:10:33;10.27;;;2.53;;
67889;SDS011;54685;52.082;5.426;2023-09-19T10:13:20;16.35;;;3.17;;
67889;SDS011;54685;52.082;5.426;2023-09-19T10:15:50;12.20;;;2.58;;
67889;SDS011;54685;52.082;5.426;2023-09-19T10:20:48;17.45;;;3.10;;
67889;SDS011;54685;52.082;5.426;2023-09-19T10:23:16;16.25;;;2.47;;
67889;SDS011;54685;52.082;5.426;2023-09-19T10:25:49;11.55;;;3.15;;
67889;SDS011;54685;52.082;5.426;2023-09-19T10:28:18;10.05;;;2.65;;
67889;SDS011;54685;52.082;5.426;2023-09-19T10:30:50;12.10;;;2.90;;
67889;SDS011;54685;52.082;5.426;2023-09-19T10:33:19;10.80;;;2.42;;
67889;SDS011;54685;52.082;5.426;2023-09-19T10:35:49;14.55;;;2.50;;
67889;SDS011;54685;52.082;5.426;2023-09-19T10:38:22;9.77;;;2.10;;
67889;SDS011;54685;52.082;5.426;2023-09-19T10:40:51;13.40;;;2.60;;
67889;SDS011;54685;52.082;5.426;2023-09-19T10:43:20;14.13;;;2.47;;
67889;SDS011;54685;52.082;5.426;2023-09-19T10:45:50;9.10;;;2.40;;
67889;SDS011;54685;52.082;5.426;2023-09-19T10:48:19;10.20;;;2.50;;
67889;SDS011;54685;52.082;5.426;2023-09-19T10:50:51;10.60;;;2.42;;
67889;SDS011;54685;52.082;5.426;2023-09-19T10:53:41;9.38;;;2.65;;
67889;SDS011;54685;52.082;5.426;2023-09-19T10:56:27;16.52;;;2.78;;
67889;SDS011;54685;52.082;5.426;2023-09-19T10:59:16;14.55;;;2.67;;
67889;SDS011;54685;52.082;5.426;2023-09-19T11:01:49;9.25;;;2.20;;
67889;SDS011;54685;52.082;5.426;2023-09-19T11:07:12;8.98;;;2.40;;
67889;SDS011;54685;52.082;5.426;2023-09-19T11:14:58;8.95;;;2.13;;
67889;SDS011;54685;52.082;5.426;2023-09-19T11:17:32;10.38;;;2.00;;
67889;SDS011;54685;52.082;5.426;2023-09-19T11:30:45;7.43;;;1.92;;
67889;SDS011;54685;52.082;5.426;2023-09-19T11:33:21;14.85;;;2.35;;
67889;SDS011;54685;52.082;5.426;2023-09-19T11:43:48;7.35;;;1.95;;
67889;SDS011;54685;52.082;5.426;2023-09-19T11:46:21;8.00;;;1.63;;
67889;SDS011;54685;52.082;5.426;2023-09-19T11:48:49;8.45;;;1.98;;
67889;SDS011;54685;52.082;5.426;2023-09-19T11:51:21;4.40;;;1.70;;
67889;SDS011;54685;52.082;5.426;2023-09-19T11:53:50;9.43;;;1.75;;
67889;SDS011;54685;52.082;5.426;2023-09-19T11:56:19;6.53;;;1.70;;
67889;SDS011;54685;52.082;5.426;2023-09-19T11:58:50;5.60;;;1.90;;
67889;SDS011;54685;52.082;5.426;2023-09-19T12:01:28;6.50;;;2.20;;
67889;SDS011;54685;52.082;5.426;2023-09-19T12:04:02;5.85;;;1.65;;
67889;SDS011;54685;52.082;5.426;2023-09-19T12:06:31;4.47;;;1.33;;
67889;SDS011;54685;52.082;5.426;2023-09-19T12:09:02;6.45;;;1.58;;
67889;SDS011;54685;52.082;5.426;2023-09-19T12:11:33;4.68;;;1.35;;
67889;SDS011;54685;52.082;5.426;2023-09-19T12:14:09;5.05;;;1.40;;
67889;SDS011;54685;52.082;5.426;2023-09-19T12:16:36;6.70;;;1.55;;
67889;SDS011;54685;52.082;5.426;2023-09-19T12:19:20;4.68;;;1.40;;
67889;SDS011;54685;52.082;5.426;2023-09-19T12:21:55;6.15;;;1.30;;
67889;SDS011;54685;52.082;5.426;2023-09-19T12:24:32;3.20;;;0.90;;
67889;SDS011;54685;52.082;5.426;2023-09-19T12:27:00;5.03;;;1.42;;
67889;SDS011;54685;52.082;5.426;2023-09-19T12:29:28;5.03;;;1.25;;
67889;SDS011;54685;52.082;5.426;2023-09-19T12:31:59;10.18;;;1.33;;
67889;SDS011;54685;52.082;5.426;2023-09-19T12:34:30;3.35;;;1.05;;
67889;SDS011;54685;52.082;5.426;2023-09-19T12:37:10;5.90;;;1.50;;
67889;SDS011;54685;52.082;5.426;2023-09-19T12:39:39;4.07;;;1.20;;
67889;SDS011;54685;52.082;5.426;2023-09-19T12:42:16;8.90;;;1.50;;
67889;SDS011;54685;52.082;5.426;2023-09-19T12:44:59;4.78;;;1.40;;
67889;SDS011;54685;52.082;5.426;2023-09-19T12:47:27;8.70;;;1.23;;
67889;SDS011;54685;52.082;5.426;2023-09-19T12:50:10;6.93;;;1.25;;
67889;SDS011;54685;52.082;5.426;2023-09-19T12:52:47;7.35;;;1.42;;
67889;SDS011;54685;52.082;5.426;2023-09-19T12:55:31;5.13;;;1.17;;
67889;SDS011;54685;52.082;5.426;2023-09-19T12:58:13;4.85;;;1.73;;
67889;SDS011;54685;52.082;5.426;2023-09-19T13:00:45;4.43;;;1.83;;
67889;SDS011;54685;52.082;5.426;2023-09-19T13:03:17;8.38;;;1.67;;
67889;SDS011;54685;52.082;5.426;2023-09-19T13:05:59;9.25;;;1.70;;
67889;SDS011;54685;52.082;5.426;2023-09-19T13:08:32;8.10;;;1.42;;
67889;SDS011;54685;52.082;5.426;2023-09-19T13:13:40;8.15;;;1.20;;
67889;SDS011;54685;52.082;5.426;2023-09-19T13:19:50;7.90;;;1.30;;
67889;SDS011;54685;52.082;5.426;2023-09-19T13:22:35;3.13;;;1.13;;
67889;SDS011;54685;52.082;5.426;2023-09-19T13:25:13;5.00;;;1.30;;
67889;SDS011;54685;52.082;5.426;2023-09-19T13:27:42;5.18;;;1.15;;
67889;SDS011;54685;52.082;5.426;2023-09-19T13:30:11;2.35;;;0.80;;
67889;SDS011;54685;52.082;5.426;2023-09-19T13:32:39;7.97;;;1.52;;
67889;SDS011;54685;52.082;5.426;2023-09-19T13:35:07;6.05;;;1.33;;
67889;SDS011;54685;52.082;5.426;2023-09-19T13:37:36;5.82;;;1.20;;
67889;SDS011;54685;52.082;5.426;2023-09-19T13:40:08;5.60;;;1.27;;
67889;SDS011;54685;52.082;5.426;2023-09-19T13:42:40;6.43;;;0.95;;
67889;SDS011;54685;52.082;5.426;2023-09-19T13:45:08;3.08;;;1.10;;
67889;SDS011;54685;52.082;5.426;2023-09-19T13:47:40;4.32;;;0.90;;
67889;SDS011;54685;52.082;5.426;2023-09-19T13:50:07;4.20;;;1.10;;
67889;SDS011;54685;52.082;5.426;2023-09-19T13:52:35;3.92;;;0.90;;
67889;SDS011;54685;52.082;5.426;2023-09-19T13:55:03;4.82;;;0.93;;
67889;SDS011;54685;52.082;5.426;2023-09-19T13:57:34;6.47;;;1.37;;
67889;SDS011;54685;52.082;5.426;2023-09-19T14:00:01;5.95;;;1.25;;
67889;SDS011;54685;52.082;5.426;2023-09-19T14:02:37;2.83;;;1.10;;
67889;SDS011;54685;52.082;5.426;2023-09-19T14:05:06;5.10;;;1.60;;
67889;SDS011;54685;52.082;5.426;2023-09-19T14:07:33;4.75;;;1.10;;
67889;SDS011;54685;52.082;5.426;2023-09-19T14:10:00;5.47;;;1.13;;
67889;SDS011;54685;52.082;5.426;2023-09-19T14:12:28;5.22;;;1.20;;
67889;SDS011;54685;52.082;5.426;2023-09-19T14:14:55;5.30;;;1.38;;
67889;SDS011;54685;52.082;5.426;2023-09-19T14:17:22;3.30;;;0.98;;
67889;SDS011;54685;52.082;5.426;2023-09-19T14:19:50;4.32;;;1.27;;
67889;SDS011;54685;52.082;5.426;2023-09-19T14:22:17;6.30;;;1.35;;
67889;SDS011;54685;52.082;5.426;2023-09-19T14:24:46;5.32;;;1.05;;
67889;SDS011;54685;52.082;5.426;2023-09-19T14:27:14;4.38;;;1.20;;
67889;SDS011;54685;52.082;5.426;2023-09-19T14:29:43;4.93;;;1.33;;
67889;SDS011;54685;52.082;5.426;2023-09-19T14:32:11;3.20;;;1.30;;
67889;SDS011;54685;52.082;5.426;2023-09-19T14:34:39;6.68;;;1.35;;
67889;SDS011;54685;52.082;5.426;2023-09-19T14:37:09;3.20;;;1.45;;
67889;SDS011;54685;52.082;5.426;2023-09-19T14:39:37;5.25;;;1.50;;
67889;SDS011;54685;52.082;5.426;2023-09-19T14:42:06;4.95;;;1.38;;
67889;SDS011;54685;52.082;5.426;2023-09-19T14:44:32;6.15;;;1.50;;
67889;SDS011;54685;52.082;5.426;2023-09-19T14:47:00;3.92;;;1.63;;
67889;SDS011;54685;52.082;5.426;2023-09-19T14:49:27;3.88;;;1.70;;
67889;SDS011;54685;52.082;5.426;2023-09-19T14:51:54;7.90;;;1.77;;
67889;SDS011;54685;52.082;5.426;2023-09-19T14:54:21;3.88;;;1.35;;
67889;SDS011;54685;52.082;5.426;2023-09-19T14:56:50;4.07;;;1.17;;
67889;SDS011;54685;52.082;5.426;2023-09-19T14:59:31;9.57;;;1.80;;
67889;SDS011;54685;52.082;5.426;2023-09-19T15:01:58;5.30;;;1.42;;
67889;SDS011;54685;52.082;5.426;2023-09-19T15:04:27;5.03;;;1.60;;
67889;SDS011;54685;52.082;5.426;2023-09-19T15:06:54;7.03;;;1.70;;
67889;SDS011;54685;52.082;5.426;2023-09-19T15:09:22;8.68;;;1.90;;
67889;SDS011;54685;52.082;5.426;2023-09-19T15:11:53;6.97;;;1.90;;
67889;SDS011;54685;52.082;5.426;2023-09-19T15:14:20;4.45;;;1.73;;
67889;SDS011;54685;52.082;5.426;2023-09-19T15:16:47;4.20;;;1.73;;
67889;SDS011;54685;52.082;5.426;2023-09-19T15:19:15;9.02;;;1.92;;
67889;SDS011;54685;52.082;5.426;2023-09-19T15:21:44;7.93;;;2.25;;
67889;SDS011;54685;52.082;5.426;2023-09-19T15:24:11;9.30;;;2.03;;
67889;SDS011;54685;52.082;5.426;2023-09-19T15:26:38;4.60;;;1.88;;
67889;SDS011;54685;52.082;5.426;2023-09-19T15:29:06;9.15;;;2.33;;
67889;SDS011;54685;52.082;5.426;2023-09-19T15:31:33;5.57;;;1.83;;
67889;SDS011;54685;52.082;5.426;2023-09-19T15:34:03;6.03;;;1.75;;
67889;SDS011;54685;52.082;5.426;2023-09-19T15:36:31;3.83;;;1.50;;
67889;SDS011;54685;52.082;5.426;2023-09-19T15:41:30;7.15;;;1.92;;
67889;SDS011;54685;52.082;5.426;2023-09-19T15:44:11;6.65;;;1.85;;
67889;SDS011;54685;52.082;5.426;2023-09-19T15:49:08;7.88;;;2.95;;
67889;SDS011;54685;52.082;5.426;2023-09-19T15:51:36;4.88;;;1.90;;
67889;SDS011;54685;52.082;5.426;2023-09-19T15:54:07;7.85;;;1.90;;
67889;SDS011;54685;52.082;5.426;2023-09-19T15:56:42;4.10;;;1.20;;
67889;SDS011;54685;52.082;5.426;2023-09-19T15:59:10;8.70;;;2.20;;
67889;SDS011;54685;52.082;5.426;2023-09-19T16:01:46;6.38;;;2.03;;
67889;SDS011;54685;52.082;5.426;2023-09-19T16:04:15;9.55;;;2.25;;
67889;SDS011;54685;52.082;5.426;2023-09-19T16:06:43;6.65;;;1.98;;